sensor_id;sensor_type;location;lat;lon;timestamp;temperature;humidity
61386;DHT22;47256;18.904;-99.054;2023-04-03T00:01:15;33.40;38.30
61386;DHT22;47256;18.904;-99.054;2023-04-03T00:03:43;33.40;39.30
61386;DHT22;47256;18.904;-99.054;2023-04-03T00:06:11;33.40;39.70
61386;DHT22;47256;18.904;-99.054;2023-04-03T00:08:39;33.30;39.50
61386;DHT22;47256;18.904;-99.054;2023-04-03T00:11:07;33.30;39.60
61386;DHT22;47256;18.904;-99.054;2023-04-03T00:13:35;33.20;39.80
61386;DHT22;47256;18.904;-99.054;2023-04-03T00:16:02;33.10;39.80
61386;DHT22;47256;18.904;-99.054;2023-04-03T00:18:30;33.10;40.70
61386;DHT22;47256;18.904;-99.054;2023-04-03T00:20:57;33.10;42.20
61386;DHT22;47256;18.904;-99.054;2023-04-03T00:23:26;33.00;42.20
61386;DHT22;47256;18.904;-99.054;2023-04-03T00:25:54;33.00;42.70
61386;DHT22;47256;18.904;-99.054;2023-04-03T00:28:22;32.90;43.90
61386;DHT22;47256;18.904;-99.054;2023-04-03T00:30:50;32.90;44.20
61386;DHT22;47256;18.904;-99.054;2023-04-03T00:33:18;32.90;43.90
61386;DHT22;47256;18.904;-99.054;2023-04-03T00:35:49;32.80;44.40
61386;DHT22;47256;18.904;-99.054;2023-04-03T00:38:18;32.80;45.00
61386;DHT22;47256;18.904;-99.054;2023-04-03T00:40:47;32.70;45.40
61386;DHT22;47256;18.904;-99.054;2023-04-03T00:43:23;32.60;45.60
61386;DHT22;47256;18.904;-99.054;2023-04-03T00:45:55;32.50;46.30
61386;DHT22;47256;18.904;-99.054;2023-04-03T00:48:48;32.50;47.50
61386;DHT22;47256;18.904;-99.054;2023-04-03T00:51:24;32.40;47.50
61386;DHT22;47256;18.904;-99.054;2023-04-03T00:53:57;32.30;47.00
61386;DHT22;47256;18.904;-99.054;2023-04-03T00:56:28;32.30;47.40
61386;DHT22;47256;18.904;-99.054;2023-04-03T00:59:11;32.20;47.80
61386;DHT22;47256;18.904;-99.054;2023-04-03T01:01:40;32.10;47.20
61386;DHT22;47256;18.904;-99.054;2023-04-03T01:04:29;32.00;46.70
61386;DHT22;47256;18.904;-99.054;2023-04-03T01:07:15;32.00;48.10
61386;DHT22;47256;18.904;-99.054;2023-04-03T01:09:45;31.80;47.60
61386;DHT22;47256;18.904;-99.054;2023-04-03T01:12:28;31.80;47.60
61386;DHT22;47256;18.904;-99.054;2023-04-03T01:17:38;31.70;46.70
61386;DHT22;47256;18.904;-99.054;2023-04-03T01:23:30;31.70;45.00
61386;DHT22;47256;18.904;-99.054;2023-04-03T01:25:59;31.70;44.60
61386;DHT22;47256;18.904;-99.054;2023-04-03T01:28:31;31.60;44.40
61386;DHT22;47256;18.904;-99.054;2023-04-03T01:31:24;31.60;44.00
61386;DHT22;47256;18.904;-99.054;2023-04-03T01:33:55;31.50;44.10
61386;DHT22;47256;18.904;-99.054;2023-04-03T01:36:28;31.50;44.00
61386;DHT22;47256;18.904;-99.054;2023-04-03T01:38:58;31.40;45.50
61386;DHT22;47256;18.904;-99.054;2023-04-03T01:41:27;31.40;44.30
61386;DHT22;47256;18.904;-99.054;2023-04-03T01:44:01;31.30;43.10
61386;DHT22;47256;18.904;-99.054;2023-04-03T01:46:31;31.20;42.10
61386;DHT22;47256;18.904;-99.054;2023-04-03T01:49:01;31.20;42.40
61386;DHT22;47256;18.904;-99.054;2023-04-03T01:51:29;31.10;44.50
61386;DHT22;47256;18.904;-99.054;2023-04-03T01:53:58;31.10;42.90
61386;DHT22;47256;18.904;-99.054;2023-04-03T01:56:27;31.10;43.30
61386;DHT22;47256;18.904;-99.054;2023-04-03T01:58:55;31.20;42.80
61386;DHT22;47256;18.904;-99.054;2023-04-03T02:01:24;31.10;45.00
61386;DHT22;47256;18.904;-99.054;2023-04-03T02:03:55;31.00;45.70
61386;DHT22;47256;18.904;-99.054;2023-04-03T02:06:22;31.00;43.90
61386;DHT22;47256;18.904;-99.054;2023-04-03T02:08:51;30.90;44.90
61386;DHT22;47256;18.904;-99.054;2023-04-03T02:11:18;30.90;45.60
61386;DHT22;47256;18.904;-99.054;2023-04-03T02:13:45;30.90;45.70
61386;DHT22;47256;18.904;-99.054;2023-04-03T02:16:13;30.80;44.60
61386;DHT22;47256;18.904;-99.054;2023-04-03T02:18:42;30.80;45.00
61386;DHT22;47256;18.904;-99.054;2023-04-03T02:21:09;30.80;44.30
61386;DHT22;47256;18.904;-99.054;2023-04-03T02:23:37;30.80;46.10
61386;DHT22;47256;18.904;-99.054;2023-04-03T02:26:10;30.70;43.90
61386;DHT22;47256;18.904;-99.054;2023-04-03T02:28:39;30.70;45.20
61386;DHT22;47256;18.904;-99.054;2023-04-03T02:31:09;30.70;46.00
61386;DHT22;47256;18.904;-99.054;2023-04-03T02:33:42;30.70;45.50
61386;DHT22;47256;18.904;-99.054;2023-04-03T02:36:13;30.60;46.70
61386;DHT22;47256;18.904;-99.054;2023-04-03T02:38:50;30.50;45.80
61386;DHT22;47256;18.904;-99.054;2023-04-03T02:41:20;30.40;45.30
61386;DHT22;47256;18.904;-99.054;2023-04-03T02:43:50;30.30;44.70
61386;DHT22;47256;18.904;-99.054;2023-04-03T02:46:22;30.30;44.80
61386;DHT22;47256;18.904;-99.054;2023-04-03T02:48:50;30.30;44.70
61386;DHT22;47256;18.904;-99.054;2023-04-03T02:51:19;30.30;47.70
61386;DHT22;47256;18.904;-99.054;2023-04-03T02:53:46;30.20;48.20
61386;DHT22;47256;18.904;-99.054;2023-04-03T02:56:21;30.10;47.70
61386;DHT22;47256;18.904;-99.054;2023-04-03T02:58:54;29.80;47.30
61386;DHT22;47256;18.904;-99.054;2023-04-03T03:01:23;29.60;48.00
61386;DHT22;47256;18.904;-99.054;2023-04-03T03:03:51;29.60;46.60
61386;DHT22;47256;18.904;-99.054;2023-04-03T03:06:22;29.60;46.90
61386;DHT22;47256;18.904;-99.054;2023-04-03T03:08:52;29.60;49.90
61386;DHT22;47256;18.904;-99.054;2023-04-03T03:11:22;29.30;49.40
61386;DHT22;47256;18.904;-99.054;2023-04-03T03:13:51;29.20;49.60
61386;DHT22;47256;18.904;-99.054;2023-04-03T03:16:23;29.10;47.40
61386;DHT22;47256;18.904;-99.054;2023-04-03T03:18:54;29.20;47.70
61386;DHT22;47256;18.904;-99.054;2023-04-03T03:21:26;29.30;47.30
61386;DHT22;47256;18.904;-99.054;2023-04-03T03:23:57;29.50;47.50
61386;DHT22;47256;18.904;-99.054;2023-04-03T03:26:29;29.50;47.70
61386;DHT22;47256;18.904;-99.054;2023-04-03T03:28:58;29.50;50.10
61386;DHT22;47256;18.904;-99.054;2023-04-03T03:31:28;29.50;49.10
61386;DHT22;47256;18.904;-99.054;2023-04-03T03:33:58;29.50;48.00
61386;DHT22;47256;18.904;-99.054;2023-04-03T03:36:29;29.50;48.20
61386;DHT22;47256;18.904;-99.054;2023-04-03T03:39:06;29.50;48.40
61386;DHT22;47256;18.904;-99.054;2023-04-03T03:41:40;29.60;48.10
61386;DHT22;47256;18.904;-99.054;2023-04-03T03:44:11;29.60;48.80
61386;DHT22;47256;18.904;-99.054;2023-04-03T03:46:40;29.50;49.90
61386;DHT22;47256;18.904;-99.054;2023-04-03T03:49:10;29.40;49.30
61386;DHT22;47256;18.904;-99.054;2023-04-03T03:51:40;29.30;49.20
61386;DHT22;47256;18.904;-99.054;2023-04-03T03:54:10;29.30;50.50
61386;DHT22;47256;18.904;-99.054;2023-04-03T03:56:43;29.30;50.10
61386;DHT22;47256;18.904;-99.054;2023-04-03T03:59:12;29.30;49.70
61386;DHT22;47256;18.904;-99.054;2023-04-03T04:01:44;29.30;50.10
61386;DHT22;47256;18.904;-99.054;2023-04-03T04:04:14;29.30;50.80
61386;DHT22;47256;18.904;-99.054;2023-04-03T04:06:43;29.30;50.30
61386;DHT22;47256;18.904;-99.054;2023-04-03T04:09:13;29.30;51.00
61386;DHT22;47256;18.904;-99.054;2023-04-03T04:11:42;29.30;50.80
61386;DHT22;47256;18.904;-99.054;2023-04-03T04:14:13;29.30;50.80
61386;DHT22;47256;18.904;-99.054;2023-04-03T04:16:45;29.30;51.50
61386;DHT22;47256;18.904;-99.054;2023-04-03T04:19:19;29.20;51.90
61386;DHT22;47256;18.904;-99.054;2023-04-03T04:21:51;29.20;51.70
61386;DHT22;47256;18.904;-99.054;2023-04-03T04:24:20;29.20;50.30
61386;DHT22;47256;18.904;-99.054;2023-04-03T04:26:53;29.10;50.50
61386;DHT22;47256;18.904;-99.054;2023-04-03T04:29:23;28.90;50.30
61386;DHT22;47256;18.904;-99.054;2023-04-03T04:31:53;28.70;49.00
61386;DHT22;47256;18.904;-99.054;2023-04-03T04:34:24;28.60;49.60
61386;DHT22;47256;18.904;-99.054;2023-04-03T04:36:53;28.60;50.90
61386;DHT22;47256;18.904;-99.054;2023-04-03T04:39:22;28.60;49.70
61386;DHT22;47256;18.904;-99.054;2023-04-03T04:41:53;28.70;49.10
61386;DHT22;47256;18.904;-99.054;2023-04-03T04:44:23;28.70;49.60
61386;DHT22;47256;18.904;-99.054;2023-04-03T04:46:51;28.70;46.10
61386;DHT22;47256;18.904;-99.054;2023-04-03T04:49:22;28.80;46.50
61386;DHT22;47256;18.904;-99.054;2023-04-03T04:51:49;28.70;48.20
61386;DHT22;47256;18.904;-99.054;2023-04-03T04:54:20;28.80;46.90
61386;DHT22;47256;18.904;-99.054;2023-04-03T04:56:52;28.80;47.10
61386;DHT22;47256;18.904;-99.054;2023-04-03T04:59:20;28.80;48.80
61386;DHT22;47256;18.904;-99.054;2023-04-03T05:01:48;28.80;47.60
61386;DHT22;47256;18.904;-99.054;2023-04-03T05:04:45;28.70;47.60
61386;DHT22;47256;18.904;-99.054;2023-04-03T05:07:19;28.60;47.30
61386;DHT22;47256;18.904;-99.054;2023-04-03T05:09:51;28.50;47.30
61386;DHT22;47256;18.904;-99.054;2023-04-03T05:12:18;28.50;47.40
61386;DHT22;47256;18.904;-99.054;2023-04-03T05:14:52;28.50;47.40
61386;DHT22;47256;18.904;-99.054;2023-04-03T05:17:21;28.50;47.80
61386;DHT22;47256;18.904;-99.054;2023-04-03T05:19:53;28.50;48.40
61386;DHT22;47256;18.904;-99.054;2023-04-03T05:22:22;28.50;47.90
61386;DHT22;47256;18.904;-99.054;2023-04-03T05:24:53;28.50;48.10
61386;DHT22;47256;18.904;-99.054;2023-04-03T05:27:22;28.60;48.00
61386;DHT22;47256;18.904;-99.054;2023-04-03T05:29:56;28.60;47.80
61386;DHT22;47256;18.904;-99.054;2023-04-03T05:32:25;28.50;48.00
61386;DHT22;47256;18.904;-99.054;2023-04-03T05:35:13;28.50;48.30
61386;DHT22;47256;18.904;-99.054;2023-04-03T05:37:42;28.50;48.30
61386;DHT22;47256;18.904;-99.054;2023-04-03T05:40:13;28.40;50.40
61386;DHT22;47256;18.904;-99.054;2023-04-03T05:42:44;28.30;49.60
61386;DHT22;47256;18.904;-99.054;2023-04-03T05:45:12;28.20;49.50
61386;DHT22;47256;18.904;-99.054;2023-04-03T05:47:40;28.20;51.30
61386;DHT22;47256;18.904;-99.054;2023-04-03T05:50:08;28.20;49.80
61386;DHT22;47256;18.904;-99.054;2023-04-03T05:52:40;28.10;50.00
61386;DHT22;47256;18.904;-99.054;2023-04-03T05:55:11;28.10;50.10
61386;DHT22;47256;18.904;-99.054;2023-04-03T05:57:39;28.10;50.50
61386;DHT22;47256;18.904;-99.054;2023-04-03T06:00:08;28.00;50.90
61386;DHT22;47256;18.904;-99.054;2023-04-03T06:02:47;28.00;51.00
61386;DHT22;47256;18.904;-99.054;2023-04-03T06:05:23;28.00;50.70
61386;DHT22;47256;18.904;-99.054;2023-04-03T06:07:53;27.90;50.60
61386;DHT22;47256;18.904;-99.054;2023-04-03T06:10:21;27.80;51.00
61386;DHT22;47256;18.904;-99.054;2023-04-03T06:12:50;27.80;50.60
61386;DHT22;47256;18.904;-99.054;2023-04-03T06:15:18;27.70;50.90
61386;DHT22;47256;18.904;-99.054;2023-04-03T06:17:46;27.60;51.90
61386;DHT22;47256;18.904;-99.054;2023-04-03T06:20:15;27.60;49.70
61386;DHT22;47256;18.904;-99.054;2023-04-03T06:22:43;27.50;49.20
61386;DHT22;47256;18.904;-99.054;2023-04-03T06:25:11;27.50;49.70
61386;DHT22;47256;18.904;-99.054;2023-04-03T06:27:39;27.60;51.00
61386;DHT22;47256;18.904;-99.054;2023-04-03T06:30:08;27.30;50.70
61386;DHT22;47256;18.904;-99.054;2023-04-03T06:32:35;27.20;51.30
61386;DHT22;47256;18.904;-99.054;2023-04-03T06:35:03;27.00;50.90
61386;DHT22;47256;18.904;-99.054;2023-04-03T06:37:32;26.90;51.00
61386;DHT22;47256;18.904;-99.054;2023-04-03T06:39:59;27.00;50.40
61386;DHT22;47256;18.904;-99.054;2023-04-03T06:42:27;27.10;50.70
61386;DHT22;47256;18.904;-99.054;2023-04-03T06:45:19;27.10;50.70
61386;DHT22;47256;18.904;-99.054;2023-04-03T06:47:47;27.00;51.60
61386;DHT22;47256;18.904;-99.054;2023-04-03T06:50:14;26.90;53.50
61386;DHT22;47256;18.904;-99.054;2023-04-03T06:52:45;26.80;53.00
61386;DHT22;47256;18.904;-99.054;2023-04-03T06:55:12;26.60;52.80
61386;DHT22;47256;18.904;-99.054;2023-04-03T06:57:41;26.60;52.50
61386;DHT22;47256;18.904;-99.054;2023-04-03T07:00:08;26.50;51.10
61386;DHT22;47256;18.904;-99.054;2023-04-03T07:02:36;26.60;52.50
61386;DHT22;47256;18.904;-99.054;2023-04-03T07:05:03;26.60;51.20
61386;DHT22;47256;18.904;-99.054;2023-04-03T07:07:31;26.60;52.60
61386;DHT22;47256;18.904;-99.054;2023-04-03T07:10:00;26.60;52.00
61386;DHT22;47256;18.904;-99.054;2023-04-03T07:12:27;26.70;52.50
61386;DHT22;47256;18.904;-99.054;2023-04-03T07:14:54;26.60;52.50
61386;DHT22;47256;18.904;-99.054;2023-04-03T07:17:22;26.70;52.20
61386;DHT22;47256;18.904;-99.054;2023-04-03T07:19:49;26.70;51.80
61386;DHT22;47256;18.904;-99.054;2023-04-03T07:22:16;26.80;51.30
61386;DHT22;47256;18.904;-99.054;2023-04-03T07:24:46;26.80;51.70
61386;DHT22;47256;18.904;-99.054;2023-04-03T07:27:14;26.90;51.60
61386;DHT22;47256;18.904;-99.054;2023-04-03T07:29:42;27.00;52.00
61386;DHT22;47256;18.904;-99.054;2023-04-03T07:32:09;26.90;51.70
61386;DHT22;47256;18.904;-99.054;2023-04-03T07:34:37;26.90;53.20
61386;DHT22;47256;18.904;-99.054;2023-04-03T07:37:04;26.80;53.10
61386;DHT22;47256;18.904;-99.054;2023-04-03T07:39:33;26.70;53.20
61386;DHT22;47256;18.904;-99.054;2023-04-03T07:42:00;26.60;53.50
61386;DHT22;47256;18.904;-99.054;2023-04-03T07:44:28;26.50;54.40
61386;DHT22;47256;18.904;-99.054;2023-04-03T07:46:56;26.40;54.80
61386;DHT22;47256;18.904;-99.054;2023-04-03T07:49:23;26.40;54.50
61386;DHT22;47256;18.904;-99.054;2023-04-03T07:51:51;26.30;54.60
61386;DHT22;47256;18.904;-99.054;2023-04-03T07:54:20;26.20;55.30
61386;DHT22;47256;18.904;-99.054;2023-04-03T07:56:47;26.20;55.40
61386;DHT22;47256;18.904;-99.054;2023-04-03T07:59:14;26.30;55.50
61386;DHT22;47256;18.904;-99.054;2023-04-03T08:01:42;26.30;55.20
61386;DHT22;47256;18.904;-99.054;2023-04-03T08:04:09;26.40;55.30
61386;DHT22;47256;18.904;-99.054;2023-04-03T08:06:36;26.40;55.60
61386;DHT22;47256;18.904;-99.054;2023-04-03T08:09:04;26.40;56.00
61386;DHT22;47256;18.904;-99.054;2023-04-03T08:11:32;26.30;55.80
61386;DHT22;47256;18.904;-99.054;2023-04-03T08:13:59;26.10;56.70
61386;DHT22;47256;18.904;-99.054;2023-04-03T08:16:27;26.10;56.80
61386;DHT22;47256;18.904;-99.054;2023-04-03T08:18:55;26.00;57.10
61386;DHT22;47256;18.904;-99.054;2023-04-03T08:21:22;25.90;56.80
61386;DHT22;47256;18.904;-99.054;2023-04-03T08:23:50;25.90;57.10
61386;DHT22;47256;18.904;-99.054;2023-04-03T08:26:19;25.80;57.00
61386;DHT22;47256;18.904;-99.054;2023-04-03T08:28:48;25.80;57.20
61386;DHT22;47256;18.904;-99.054;2023-04-03T08:31:18;25.70;57.40
61386;DHT22;47256;18.904;-99.054;2023-04-03T08:33:47;25.70;57.30
61386;DHT22;47256;18.904;-99.054;2023-04-03T08:36:23;25.80;58.00
61386;DHT22;47256;18.904;-99.054;2023-04-03T08:38:52;25.60;57.80
61386;DHT22;47256;18.904;-99.054;2023-04-03T08:41:32;25.60;57.60
61386;DHT22;47256;18.904;-99.054;2023-04-03T08:44:24;25.70;57.40
61386;DHT22;47256;18.904;-99.054;2023-04-03T08:49:43;25.80;57.10
61386;DHT22;47256;18.904;-99.054;2023-04-03T08:54:56;25.70;57.00
61386;DHT22;47256;18.904;-99.054;2023-04-03T08:57:40;25.50;58.40
61386;DHT22;47256;18.904;-99.054;2023-04-03T09:00:16;25.40;58.60
61386;DHT22;47256;18.904;-99.054;2023-04-03T09:02:52;25.40;57.80
61386;DHT22;47256;18.904;-99.054;2023-04-03T09:08:31;25.50;57.70
61386;DHT22;47256;18.904;-99.054;2023-04-03T09:11:23;25.50;57.40
61386;DHT22;47256;18.904;-99.054;2023-04-03T09:17:35;25.50;57.60
61386;DHT22;47256;18.904;-99.054;2023-04-03T09:22:41;25.50;58.80
61386;DHT22;47256;18.904;-99.054;2023-04-03T09:25:23;25.40;58.40
61386;DHT22;47256;18.904;-99.054;2023-04-03T09:27:52;25.40;58.60
61386;DHT22;47256;18.904;-99.054;2023-04-03T09:30:26;25.40;58.90
61386;DHT22;47256;18.904;-99.054;2023-04-03T09:32:56;25.30;59.10
61386;DHT22;47256;18.904;-99.054;2023-04-03T09:35:31;25.10;60.90
61386;DHT22;47256;18.904;-99.054;2023-04-03T09:38:20;24.90;60.60
61386;DHT22;47256;18.904;-99.054;2023-04-03T09:41:15;24.70;60.20
61386;DHT22;47256;18.904;-99.054;2023-04-03T09:43:53;24.70;61.00
61386;DHT22;47256;18.904;-99.054;2023-04-03T09:46:32;24.80;60.40
61386;DHT22;47256;18.904;-99.054;2023-04-03T09:49:04;24.90;61.30
61386;DHT22;47256;18.904;-99.054;2023-04-03T09:51:32;25.00;60.40
61386;DHT22;47256;18.904;-99.054;2023-04-03T09:53:59;25.00;60.30
61386;DHT22;47256;18.904;-99.054;2023-04-03T09:56:29;24.90;61.40
61386;DHT22;47256;18.904;-99.054;2023-04-03T10:01:34;24.90;60.70
61386;DHT22;47256;18.904;-99.054;2023-04-03T10:04:13;25.00;61.50
61386;DHT22;47256;18.904;-99.054;2023-04-03T10:06:54;25.00;62.00
61386;DHT22;47256;18.904;-99.054;2023-04-03T10:09:32;24.90;62.20
61386;DHT22;47256;18.904;-99.054;2023-04-03T10:12:05;25.00;62.20
61386;DHT22;47256;18.904;-99.054;2023-04-03T10:14:38;25.00;62.00
61386;DHT22;47256;18.904;-99.054;2023-04-03T10:17:21;24.90;62.70
61386;DHT22;47256;18.904;-99.054;2023-04-03T10:25:55;24.60;63.20
61386;DHT22;47256;18.904;-99.054;2023-04-03T10:28:53;24.60;63.50
61386;DHT22;47256;18.904;-99.054;2023-04-03T10:31:33;24.50;63.50
61386;DHT22;47256;18.904;-99.054;2023-04-03T10:34:06;24.40;63.80
61386;DHT22;47256;18.904;-99.054;2023-04-03T10:47:23;24.30;63.40
61386;DHT22;47256;18.904;-99.054;2023-04-03T10:49:56;24.20;63.00
61386;DHT22;47256;18.904;-99.054;2023-04-03T10:52:40;24.20;63.30
61386;DHT22;47256;18.904;-99.054;2023-04-03T10:55:41;24.20;63.90
61386;DHT22;47256;18.904;-99.054;2023-04-03T10:58:25;24.20;64.20
61386;DHT22;47256;18.904;-99.054;2023-04-03T11:00:57;24.20;64.00
61386;DHT22;47256;18.904;-99.054;2023-04-03T11:03:38;24.30;64.10
61386;DHT22;47256;18.904;-99.054;2023-04-03T11:06:15;24.10;64.50
61386;DHT22;47256;18.904;-99.054;2023-04-03T11:09:02;24.20;63.80
61386;DHT22;47256;18.904;-99.054;2023-04-03T11:11:37;24.20;63.90
61386;DHT22;47256;18.904;-99.054;2023-04-03T11:14:18;24.00;64.40
61386;DHT22;47256;18.904;-99.054;2023-04-03T11:22:36;24.00;64.80
61386;DHT22;47256;18.904;-99.054;2023-04-03T11:25:20;24.00;64.70
61386;DHT22;47256;18.904;-99.054;2023-04-03T11:28:04;24.00;64.70
61386;DHT22;47256;18.904;-99.054;2023-04-03T11:36:33;24.10;64.10
61386;DHT22;47256;18.904;-99.054;2023-04-03T11:41:55;23.70;66.10
61386;DHT22;47256;18.904;-99.054;2023-04-03T11:44:37;23.50;62.50
61386;DHT22;47256;18.904;-99.054;2023-04-03T11:47:06;23.40;61.50
61386;DHT22;47256;18.904;-99.054;2023-04-03T11:50:04;23.40;63.70
61386;DHT22;47256;18.904;-99.054;2023-04-03T12:00:49;23.20;64.00
61386;DHT22;47256;18.904;-99.054;2023-04-03T12:08:46;23.40;63.50
61386;DHT22;47256;18.904;-99.054;2023-04-03T12:11:30;23.30;63.60
61386;DHT22;47256;18.904;-99.054;2023-04-03T12:16:47;23.30;64.80
61386;DHT22;47256;18.904;-99.054;2023-04-03T12:46:12;23.00;67.60
61386;DHT22;47256;18.904;-99.054;2023-04-03T12:48:56;23.10;67.20
61386;DHT22;47256;18.904;-99.054;2023-04-03T12:51:40;23.20;67.30
61386;DHT22;47256;18.904;-99.054;2023-04-03T12:54:23;23.20;67.50
61386;DHT22;47256;18.904;-99.054;2023-04-03T12:57:12;23.20;67.60
61386;DHT22;47256;18.904;-99.054;2023-04-03T12:59:44;23.20;67.30
61386;DHT22;47256;18.904;-99.054;2023-04-03T13:02:25;23.20;68.30
61386;DHT22;47256;18.904;-99.054;2023-04-03T13:04:55;23.20;68.20
61386;DHT22;47256;18.904;-99.054;2023-04-03T13:07:35;23.20;67.50
61386;DHT22;47256;18.904;-99.054;2023-04-03T13:12:55;22.90;68.30
61386;DHT22;47256;18.904;-99.054;2023-04-03T13:15:29;23.00;67.60
61386;DHT22;47256;18.904;-99.054;2023-04-03T13:17:57;22.90;66.40
61386;DHT22;47256;18.904;-99.054;2023-04-03T13:20:30;23.00;68.30
61386;DHT22;47256;18.904;-99.054;2023-04-03T13:23:05;23.10;68.00
61386;DHT22;47256;18.904;-99.054;2023-04-03T13:25:39;23.20;68.30
61386;DHT22;47256;18.904;-99.054;2023-04-03T13:28:09;23.20;69.50
61386;DHT22;47256;18.904;-99.054;2023-04-03T13:30:40;23.20;69.20
61386;DHT22;47256;18.904;-99.054;2023-04-03T13:33:22;23.40;68.90
61386;DHT22;47256;18.904;-99.054;2023-04-03T13:35:56;23.50;67.80
61386;DHT22;47256;18.904;-99.054;2023-04-03T13:38:30;23.70;67.90
61386;DHT22;47256;18.904;-99.054;2023-04-03T13:41:22;23.70;66.50
61386;DHT22;47256;18.904;-99.054;2023-04-03T13:43:52;23.70;65.80
61386;DHT22;47256;18.904;-99.054;2023-04-03T13:48:51;23.90;66.00
61386;DHT22;47256;18.904;-99.054;2023-04-03T13:51:27;24.00;65.40
61386;DHT22;47256;18.904;-99.054;2023-04-03T13:54:00;24.00;65.40
61386;DHT22;47256;18.904;-99.054;2023-04-03T14:02:04;24.40;67.70
61386;DHT22;47256;18.904;-99.054;2023-04-03T14:04:48;24.50;67.20
61386;DHT22;47256;18.904;-99.054;2023-04-03T14:07:17;24.60;67.60
61386;DHT22;47256;18.904;-99.054;2023-04-03T14:09:46;24.80;66.30
61386;DHT22;47256;18.904;-99.054;2023-04-03T14:14:45;24.90;66.00
61386;DHT22;47256;18.904;-99.054;2023-04-03T14:17:19;25.00;65.00
61386;DHT22;47256;18.904;-99.054;2023-04-03T14:19:48;25.00;64.30
61386;DHT22;47256;18.904;-99.054;2023-04-03T14:22:23;25.10;64.20
61386;DHT22;47256;18.904;-99.054;2023-04-03T14:24:52;25.10;63.80
61386;DHT22;47256;18.904;-99.054;2023-04-03T14:29:56;25.20;62.90
61386;DHT22;47256;18.904;-99.054;2023-04-03T14:32:26;25.40;63.00
61386;DHT22;47256;18.904;-99.054;2023-04-03T14:34:54;25.50;62.90
61386;DHT22;47256;18.904;-99.054;2023-04-03T14:37:26;25.60;60.80
61386;DHT22;47256;18.904;-99.054;2023-04-03T14:39:54;25.70;61.40
61386;DHT22;47256;18.904;-99.054;2023-04-03T14:42:29;25.80;61.30
61386;DHT22;47256;18.904;-99.054;2023-04-03T14:44:59;26.00;59.60
61386;DHT22;47256;18.904;-99.054;2023-04-03T14:47:29;26.10;59.80
61386;DHT22;47256;18.904;-99.054;2023-04-03T14:50:02;26.20;59.70
61386;DHT22;47256;18.904;-99.054;2023-04-03T14:52:33;26.30;59.30
61386;DHT22;47256;18.904;-99.054;2023-04-03T14:55:04;26.40;58.90
61386;DHT22;47256;18.904;-99.054;2023-04-03T14:57:35;26.50;59.90
61386;DHT22;47256;18.904;-99.054;2023-04-03T15:00:04;26.70;59.90
61386;DHT22;47256;18.904;-99.054;2023-04-03T15:02:36;26.80;59.10
61386;DHT22;47256;18.904;-99.054;2023-04-03T15:05:09;26.90;59.80
61386;DHT22;47256;18.904;-99.054;2023-04-03T15:07:39;27.00;59.30
61386;DHT22;47256;18.904;-99.054;2023-04-03T15:10:22;27.10;59.20
61386;DHT22;47256;18.904;-99.054;2023-04-03T15:12:53;27.20;59.80
61386;DHT22;47256;18.904;-99.054;2023-04-03T15:15:22;27.30;58.80
61386;DHT22;47256;18.904;-99.054;2023-04-03T15:17:54;27.50;59.00
61386;DHT22;47256;18.904;-99.054;2023-04-03T15:20:28;27.50;59.00
61386;DHT22;47256;18.904;-99.054;2023-04-03T15:23:00;27.60;58.70
61386;DHT22;47256;18.904;-99.054;2023-04-03T15:25:28;27.70;58.40
61386;DHT22;47256;18.904;-99.054;2023-04-03T15:27:56;27.80;58.80
61386;DHT22;47256;18.904;-99.054;2023-04-03T15:30:24;27.90;59.10
61386;DHT22;47256;18.904;-99.054;2023-04-03T15:32:51;27.90;57.30
61386;DHT22;47256;18.904;-99.054;2023-04-03T15:35:21;28.00;57.30
61386;DHT22;47256;18.904;-99.054;2023-04-03T15:46:36;28.40;58.10
61386;DHT22;47256;18.904;-99.054;2023-04-03T15:50:17;28.60;57.60
61386;DHT22;47256;18.904;-99.054;2023-04-03T15:53:58;28.80;56.40
61386;DHT22;47256;18.904;-99.054;2023-04-03T15:57:26;28.90;55.70
61386;DHT22;47256;18.904;-99.054;2023-04-03T16:00:56;28.90;56.10
61386;DHT22;47256;18.904;-99.054;2023-04-03T16:04:38;29.00;56.30
61386;DHT22;47256;18.904;-99.054;2023-04-03T16:08:20;29.00;56.40
61386;DHT22;47256;18.904;-99.054;2023-04-03T16:12:02;29.30;57.60
61386;DHT22;47256;18.904;-99.054;2023-04-03T16:15:32;29.50;56.60
61386;DHT22;47256;18.904;-99.054;2023-04-03T16:18:56;29.80;56.90
61386;DHT22;47256;18.904;-99.054;2023-04-03T16:22:31;30.10;56.90
61386;DHT22;47256;18.904;-99.054;2023-04-03T16:26:14;30.20;56.50
61386;DHT22;47256;18.904;-99.054;2023-04-03T16:29:38;30.40;55.80
61386;DHT22;47256;18.904;-99.054;2023-04-03T16:33:17;30.70;56.40
61386;DHT22;47256;18.904;-99.054;2023-04-03T16:36:39;30.90;55.80
61386;DHT22;47256;18.904;-99.054;2023-04-03T16:40:21;30.90;53.60
61386;DHT22;47256;18.904;-99.054;2023-04-03T16:43:43;31.20;54.90
61386;DHT22;47256;18.904;-99.054;2023-04-03T16:47:06;31.40;55.50
61386;DHT22;47256;18.904;-99.054;2023-04-03T16:50:28;31.60;55.50
61386;DHT22;47256;18.904;-99.054;2023-04-03T16:53:52;31.90;54.10
61386;DHT22;47256;18.904;-99.054;2023-04-03T16:57:28;32.00;53.40
61386;DHT22;47256;18.904;-99.054;2023-04-03T17:00:51;32.20;53.00
61386;DHT22;47256;18.904;-99.054;2023-04-03T17:04:13;32.40;54.60
61386;DHT22;47256;18.904;-99.054;2023-04-03T17:07:37;32.60;51.80
61386;DHT22;47256;18.904;-99.054;2023-04-03T17:11:07;32.60;50.80
61386;DHT22;47256;18.904;-99.054;2023-04-03T17:14:29;32.40;51.10
61386;DHT22;47256;18.904;-99.054;2023-04-03T17:17:52;32.50;52.90
61386;DHT22;47256;18.904;-99.054;2023-04-03T17:21:15;32.80;52.90
61386;DHT22;47256;18.904;-99.054;2023-04-03T17:24:55;32.80;50.60
61386;DHT22;47256;18.904;-99.054;2023-04-03T17:28:23;32.80;50.40
61386;DHT22;47256;18.904;-99.054;2023-04-03T17:31:46;32.80;52.30
61386;DHT22;47256;18.904;-99.054;2023-04-03T17:35:08;33.10;50.50
61386;DHT22;47256;18.904;-99.054;2023-04-03T17:38:34;33.30;51.20
61386;DHT22;47256;18.904;-99.054;2023-04-03T17:42:16;33.40;50.00
61386;DHT22;47256;18.904;-99.054;2023-04-03T17:45:38;33.40;51.00
61386;DHT22;47256;18.904;-99.054;2023-04-03T17:49:01;33.70;50.60
61386;DHT22;47256;18.904;-99.054;2023-04-03T17:52:24;34.10;50.50
61386;DHT22;47256;18.904;-99.054;2023-04-03T17:55:46;34.30;49.30
61386;DHT22;47256;18.904;-99.054;2023-04-03T17:59:15;34.30;49.00
61386;DHT22;47256;18.904;-99.054;2023-04-03T18:02:38;34.30;47.80
61386;DHT22;47256;18.904;-99.054;2023-04-03T18:06:05;34.40;48.50
61386;DHT22;47256;18.904;-99.054;2023-04-03T18:09:41;34.50;49.50
61386;DHT22;47256;18.904;-99.054;2023-04-03T18:13:09;34.60;47.10
61386;DHT22;47256;18.904;-99.054;2023-04-03T18:16:33;34.40;47.50